Grant Road Addition, Washington
Current Conditions -  °F | °C
As of 4:55 PM on Friday 19 Dec 2014 (Local Time) from KEAT Reporting Station
Clear Clear  
Wind Chill: 39°   Ceiling: Unl
Heat Index: 39°   Visibility: 10mi
Dew Point: 34°   Wind: 0mph
Humidity: 82%   Direction: NA
Pressure: 29.96"   Gusts: NA
Location:  47.3635°N, 120.348°W
Report Text: KEAT 200055Z AUTO 00000KT 10SM CLR 04/01 A2996 RMK AO2 SLP153 T00390011
Loading
Personal Weather Stations






























Interactive Weather Map New forecast layout! Learn more

10-Day Weather Forecast

Advertisements
Track Severe Weather on mobile